Terminal Aerodrome Forecast
Issued by NWS Topeka, KS

Home | Current Version | Previous Version | Graphics & Text | Print | Product List | Glossary On
Versions: 1 2 3 4 5 6 7 8 9 10 11 12 13
965
FTUS43 KTOP 212327
TAFTOP
TAF
KTOP 212327Z 2200/2224 34012KT P6SM SKC
     FM220100 35006KT P6SM SKC
     FM221700 20006KT P6SM FEW150=

USA.gov is the U.S. government's official web portal to all federal, state and local government web resources and services.